sensor_id;sensor_type;location;lat;lon;timestamp;P1;durP1;ratioP1;P2;durP2;ratioP2
41984;SDS011;28319;48.116;10.818;2022-08-03T00:01:45;2.65;;;1.35;;
41984;SDS011;28319;48.116;10.818;2022-08-03T00:04:13;1.45;;;1.38;;
41984;SDS011;28319;48.116;10.818;2022-08-03T00:06:40;1.40;;;1.30;;
41984;SDS011;28319;48.116;10.818;2022-08-03T00:09:07;1.45;;;1.20;;
41984;SDS011;28319;48.116;10.818;2022-08-03T00:11:35;2.97;;;1.33;;
41984;SDS011;28319;48.116;10.818;2022-08-03T00:14:02;1.73;;;1.58;;
41984;SDS011;28319;48.116;10.818;2022-08-03T00:16:31;1.77;;;1.60;;
41984;SDS011;28319;48.116;10.818;2022-08-03T00:18:59;1.25;;;1.25;;
41984;SDS011;28319;48.116;10.818;2022-08-03T00:21:26;1.65;;;1.55;;
41984;SDS011;28319;48.116;10.818;2022-08-03T00:23:54;1.55;;;1.45;;
41984;SDS011;28319;48.116;10.818;2022-08-03T00:26:21;1.45;;;1.38;;
41984;SDS011;28319;48.116;10.818;2022-08-03T00:28:49;1.33;;;1.33;;
41984;SDS011;28319;48.116;10.818;2022-08-03T00:31:16;1.75;;;1.30;;
41984;SDS011;28319;48.116;10.818;2022-08-03T00:33:44;1.77;;;1.35;;
41984;SDS011;28319;48.116;10.818;2022-08-03T00:36:11;1.30;;;1.30;;
41984;SDS011;28319;48.116;10.818;2022-08-03T00:38:38;1.67;;;1.58;;
41984;SDS011;28319;48.116;10.818;2022-08-03T00:41:05;1.35;;;1.35;;
41984;SDS011;28319;48.116;10.818;2022-08-03T00:43:33;1.20;;;1.20;;
41984;SDS011;28319;48.116;10.818;2022-08-03T00:45:59;1.45;;;1.35;;
41984;SDS011;28319;48.116;10.818;2022-08-03T00:48:27;1.67;;;1.58;;
41984;SDS011;28319;48.116;10.818;2022-08-03T00:50:55;1.40;;;1.30;;
41984;SDS011;28319;48.116;10.818;2022-08-03T00:53:22;1.60;;;1.48;;
41984;SDS011;28319;48.116;10.818;2022-08-03T00:55:50;1.33;;;1.23;;
41984;SDS011;28319;48.116;10.818;2022-08-03T00:58:17;1.92;;;1.58;;
41984;SDS011;28319;48.116;10.818;2022-08-03T01:00:44;1.40;;;1.35;;
41984;SDS011;28319;48.116;10.818;2022-08-03T01:03:11;1.52;;;1.40;;
41984;SDS011;28319;48.116;10.818;2022-08-03T01:05:42;1.48;;;1.38;;
41984;SDS011;28319;48.116;10.818;2022-08-03T01:08:18;1.38;;;1.27;;
41984;SDS011;28319;48.116;10.818;2022-08-03T01:10:50;1.48;;;1.38;;
41984;SDS011;28319;48.116;10.818;2022-08-03T01:13:24;1.33;;;1.23;;
41984;SDS011;28319;48.116;10.818;2022-08-03T01:15:58;1.30;;;1.20;;
41984;SDS011;28319;48.116;10.818;2022-08-03T01:18:28;2.03;;;1.73;;
41984;SDS011;28319;48.116;10.818;2022-08-03T01:21:02;2.10;;;1.35;;
41984;SDS011;28319;48.116;10.818;2022-08-03T01:23:38;1.67;;;1.50;;
41984;SDS011;28319;48.116;10.818;2022-08-03T01:26:41;1.90;;;1.80;;
41984;SDS011;28319;48.116;10.818;2022-08-03T01:29:38;1.98;;;1.75;;
41984;SDS011;28319;48.116;10.818;2022-08-03T01:32:33;1.73;;;1.40;;
41984;SDS011;28319;48.116;10.818;2022-08-03T01:35:05;1.50;;;1.40;;
41984;SDS011;28319;48.116;10.818;2022-08-03T01:37:39;1.63;;;1.40;;
41984;SDS011;28319;48.116;10.818;2022-08-03T01:40:10;1.70;;;1.60;;
41984;SDS011;28319;48.116;10.818;2022-08-03T01:42:39;1.50;;;1.40;;
41984;SDS011;28319;48.116;10.818;2022-08-03T01:45:11;1.80;;;1.40;;
41984;SDS011;28319;48.116;10.818;2022-08-03T01:47:42;1.58;;;1.50;;
41984;SDS011;28319;48.116;10.818;2022-08-03T01:50:11;1.73;;;1.33;;
41984;SDS011;28319;48.116;10.818;2022-08-03T01:52:40;1.63;;;1.52;;
41984;SDS011;28319;48.116;10.818;2022-08-03T01:55:09;1.63;;;1.52;;
41984;SDS011;28319;48.116;10.818;2022-08-03T01:57:38;1.90;;;1.80;;
41984;SDS011;28319;48.116;10.818;2022-08-03T02:00:10;1.52;;;1.40;;
41984;SDS011;28319;48.116;10.818;2022-08-03T02:02:38;1.67;;;1.58;;
41984;SDS011;28319;48.116;10.818;2022-08-03T02:05:06;1.38;;;1.30;;
41984;SDS011;28319;48.116;10.818;2022-08-03T02:07:36;1.52;;;1.33;;
41984;SDS011;28319;48.116;10.818;2022-08-03T02:10:05;1.20;;;1.20;;
41984;SDS011;28319;48.116;10.818;2022-08-03T02:12:34;1.30;;;1.30;;
41984;SDS011;28319;48.116;10.818;2022-08-03T02:15:04;1.48;;;1.20;;
41984;SDS011;28319;48.116;10.818;2022-08-03T02:17:33;1.13;;;1.13;;
41984;SDS011;28319;48.116;10.818;2022-08-03T02:20:02;1.65;;;1.55;;
41984;SDS011;28319;48.116;10.818;2022-08-03T02:22:30;2.13;;;1.38;;
41984;SDS011;28319;48.116;10.818;2022-08-03T02:24:58;1.70;;;1.60;;
41984;SDS011;28319;48.116;10.818;2022-08-03T02:27:26;1.45;;;1.30;;
41984;SDS011;28319;48.116;10.818;2022-08-03T02:29:55;1.42;;;1.33;;
41984;SDS011;28319;48.116;10.818;2022-08-03T02:32:31;1.58;;;1.48;;
41984;SDS011;28319;48.116;10.818;2022-08-03T02:35:03;1.35;;;1.30;;
41984;SDS011;28319;48.116;10.818;2022-08-03T02:37:41;1.25;;;1.23;;
41984;SDS011;28319;48.116;10.818;2022-08-03T02:40:10;1.58;;;1.40;;
41984;SDS011;28319;48.116;10.818;2022-08-03T02:42:39;1.63;;;1.52;;
41984;SDS011;28319;48.116;10.818;2022-08-03T02:45:08;1.65;;;1.40;;
41984;SDS011;28319;48.116;10.818;2022-08-03T02:47:39;1.20;;;1.20;;
41984;SDS011;28319;48.116;10.818;2022-08-03T02:50:10;1.70;;;1.60;;
41984;SDS011;28319;48.116;10.818;2022-08-03T02:52:38;1.42;;;1.33;;
41984;SDS011;28319;48.116;10.818;2022-08-03T02:55:07;1.70;;;1.60;;
41984;SDS011;28319;48.116;10.818;2022-08-03T02:57:36;1.30;;;1.30;;
41984;SDS011;28319;48.116;10.818;2022-08-03T03:00:04;1.65;;;1.55;;
41984;SDS011;28319;48.116;10.818;2022-08-03T03:02:33;1.27;;;1.27;;
41984;SDS011;28319;48.116;10.818;2022-08-03T03:05:02;1.33;;;1.33;;
41984;SDS011;28319;48.116;10.818;2022-08-03T03:07:30;1.50;;;1.40;;
41984;SDS011;28319;48.116;10.818;2022-08-03T03:09:58;1.60;;;1.50;;
41984;SDS011;28319;48.116;10.818;2022-08-03T03:12:27;2.00;;;1.90;;
41984;SDS011;28319;48.116;10.818;2022-08-03T03:14:54;1.85;;;1.40;;
41984;SDS011;28319;48.116;10.818;2022-08-03T03:17:21;2.30;;;1.60;;
41984;SDS011;28319;48.116;10.818;2022-08-03T03:19:50;1.65;;;1.55;;
41984;SDS011;28319;48.116;10.818;2022-08-03T03:22:19;1.52;;;1.42;;
41984;SDS011;28319;48.116;10.818;2022-08-03T03:24:47;1.40;;;1.30;;
41984;SDS011;28319;48.116;10.818;2022-08-03T03:27:15;1.67;;;1.58;;
41984;SDS011;28319;48.116;10.818;2022-08-03T03:29:43;1.23;;;1.23;;
41984;SDS011;28319;48.116;10.818;2022-08-03T03:32:10;1.60;;;1.50;;
41984;SDS011;28319;48.116;10.818;2022-08-03T03:34:38;2.13;;;1.58;;
41984;SDS011;28319;48.116;10.818;2022-08-03T03:37:05;1.60;;;1.50;;
41984;SDS011;28319;48.116;10.818;2022-08-03T03:39:34;1.75;;;1.65;;
41984;SDS011;28319;48.116;10.818;2022-08-03T03:42:01;1.50;;;1.40;;
41984;SDS011;28319;48.116;10.818;2022-08-03T03:44:30;1.30;;;1.30;;
41984;SDS011;28319;48.116;10.818;2022-08-03T03:46:57;1.60;;;1.50;;
41984;SDS011;28319;48.116;10.818;2022-08-03T03:49:24;2.15;;;1.58;;
41984;SDS011;28319;48.116;10.818;2022-08-03T03:51:52;1.60;;;1.50;;
41984;SDS011;28319;48.116;10.818;2022-08-03T03:54:19;1.83;;;1.73;;
41984;SDS011;28319;48.116;10.818;2022-08-03T03:56:48;2.95;;;1.60;;
41984;SDS011;28319;48.116;10.818;2022-08-03T03:59:15;1.83;;;1.70;;
41984;SDS011;28319;48.116;10.818;2022-08-03T04:01:42;1.70;;;1.60;;
41984;SDS011;28319;48.116;10.818;2022-08-03T04:04:09;2.08;;;1.40;;
41984;SDS011;28319;48.116;10.818;2022-08-03T04:06:53;3.90;;;3.38;;
41984;SDS011;28319;48.116;10.818;2022-08-03T04:09:37;2.17;;;1.80;;
41984;SDS011;28319;48.116;10.818;2022-08-03T04:12:25;1.85;;;1.73;;
41984;SDS011;28319;48.116;10.818;2022-08-03T04:14:55;3.22;;;1.65;;
41984;SDS011;28319;48.116;10.818;2022-08-03T04:17:24;2.55;;;1.80;;
41984;SDS011;28319;48.116;10.818;2022-08-03T04:19:54;3.17;;;1.90;;
41984;SDS011;28319;48.116;10.818;2022-08-03T04:22:23;1.80;;;1.70;;
41984;SDS011;28319;48.116;10.818;2022-08-03T04:24:52;4.07;;;1.63;;
41984;SDS011;28319;48.116;10.818;2022-08-03T04:27:27;2.78;;;1.73;;
41984;SDS011;28319;48.116;10.818;2022-08-03T04:29:58;2.08;;;1.98;;
41984;SDS011;28319;48.116;10.818;2022-08-03T04:32:29;2.85;;;1.73;;
41984;SDS011;28319;48.116;10.818;2022-08-03T04:34:56;3.00;;;1.70;;
41984;SDS011;28319;48.116;10.818;2022-08-03T04:37:25;1.63;;;1.52;;
41984;SDS011;28319;48.116;10.818;2022-08-03T04:39:58;1.85;;;1.75;;
41984;SDS011;28319;48.116;10.818;2022-08-03T04:42:29;2.30;;;1.63;;
41984;SDS011;28319;48.116;10.818;2022-08-03T04:44:58;2.13;;;1.85;;
41984;SDS011;28319;48.116;10.818;2022-08-03T04:47:28;1.63;;;1.52;;
41984;SDS011;28319;48.116;10.818;2022-08-03T04:49:57;2.10;;;2.00;;
41984;SDS011;28319;48.116;10.818;2022-08-03T04:52:26;2.75;;;1.30;;
41984;SDS011;28319;48.116;10.818;2022-08-03T04:54:53;1.55;;;1.48;;
41984;SDS011;28319;48.116;10.818;2022-08-03T04:57:20;1.85;;;1.75;;
41984;SDS011;28319;48.116;10.818;2022-08-03T04:59:48;2.83;;;1.80;;
41984;SDS011;28319;48.116;10.818;2022-08-03T05:02:18;1.95;;;1.75;;
41984;SDS011;28319;48.116;10.818;2022-08-03T05:04:45;4.25;;;2.28;;
41984;SDS011;28319;48.116;10.818;2022-08-03T05:07:13;3.90;;;2.35;;
41984;SDS011;28319;48.116;10.818;2022-08-03T05:09:41;3.70;;;1.67;;
41984;SDS011;28319;48.116;10.818;2022-08-03T05:12:08;1.73;;;1.63;;
41984;SDS011;28319;48.116;10.818;2022-08-03T05:14:37;2.03;;;1.50;;
41984;SDS011;28319;48.116;10.818;2022-08-03T05:17:06;2.13;;;1.80;;
41984;SDS011;28319;48.116;10.818;2022-08-03T05:19:33;1.60;;;1.50;;
41984;SDS011;28319;48.116;10.818;2022-08-03T05:22:01;1.65;;;1.55;;
41984;SDS011;28319;48.116;10.818;2022-08-03T05:24:28;1.88;;;1.77;;
41984;SDS011;28319;48.116;10.818;2022-08-03T05:26:55;2.13;;;2.00;;
41984;SDS011;28319;48.116;10.818;2022-08-03T05:29:22;2.53;;;1.95;;
41984;SDS011;28319;48.116;10.818;2022-08-03T05:31:49;1.88;;;1.75;;
41984;SDS011;28319;48.116;10.818;2022-08-03T05:34:18;1.98;;;1.88;;
41984;SDS011;28319;48.116;10.818;2022-08-03T05:36:45;1.88;;;1.60;;
41984;SDS011;28319;48.116;10.818;2022-08-03T05:39:12;1.67;;;1.58;;
41984;SDS011;28319;48.116;10.818;2022-08-03T05:41:39;2.53;;;1.90;;
41984;SDS011;28319;48.116;10.818;2022-08-03T05:44:06;2.00;;;1.90;;
41984;SDS011;28319;48.116;10.818;2022-08-03T05:46:33;2.30;;;2.00;;
41984;SDS011;28319;48.116;10.818;2022-08-03T05:49:00;1.95;;;1.70;;
41984;SDS011;28319;48.116;10.818;2022-08-03T05:51:29;1.58;;;1.48;;
41984;SDS011;28319;48.116;10.818;2022-08-03T05:53:56;2.00;;;1.90;;
41984;SDS011;28319;48.116;10.818;2022-08-03T05:56:23;1.92;;;1.83;;
41984;SDS011;28319;48.116;10.818;2022-08-03T05:58:50;1.70;;;1.60;;
41984;SDS011;28319;48.116;10.818;2022-08-03T06:01:18;2.13;;;2.00;;
41984;SDS011;28319;48.116;10.818;2022-08-03T06:03:47;3.38;;;1.67;;
41984;SDS011;28319;48.116;10.818;2022-08-03T06:06:16;2.63;;;2.00;;
41984;SDS011;28319;48.116;10.818;2022-08-03T06:08:44;2.05;;;1.90;;
41984;SDS011;28319;48.116;10.818;2022-08-03T06:11:12;2.33;;;2.13;;
41984;SDS011;28319;48.116;10.818;2022-08-03T06:13:40;3.13;;;2.83;;
41984;SDS011;28319;48.116;10.818;2022-08-03T06:16:08;2.10;;;1.80;;
41984;SDS011;28319;48.116;10.818;2022-08-03T06:18:35;1.67;;;1.58;;
41984;SDS011;28319;48.116;10.818;2022-08-03T06:21:03;2.10;;;1.90;;
41984;SDS011;28319;48.116;10.818;2022-08-03T06:23:30;2.40;;;1.90;;
41984;SDS011;28319;48.116;10.818;2022-08-03T06:25:59;2.03;;;1.70;;
41984;SDS011;28319;48.116;10.818;2022-08-03T06:28:26;2.45;;;2.00;;
41984;SDS011;28319;48.116;10.818;2022-08-03T06:30:53;3.53;;;1.92;;
41984;SDS011;28319;48.116;10.818;2022-08-03T06:33:21;3.17;;;1.85;;
41984;SDS011;28319;48.116;10.818;2022-08-03T06:35:49;2.67;;;2.20;;
41984;SDS011;28319;48.116;10.818;2022-08-03T06:38:16;5.32;;;2.30;;
41984;SDS011;28319;48.116;10.818;2022-08-03T06:40:43;3.25;;;2.97;;
41984;SDS011;28319;48.116;10.818;2022-08-03T06:43:12;2.83;;;2.05;;
41984;SDS011;28319;48.116;10.818;2022-08-03T06:45:39;3.28;;;2.33;;
41984;SDS011;28319;48.116;10.818;2022-08-03T06:48:07;2.78;;;2.58;;
41984;SDS011;28319;48.116;10.818;2022-08-03T06:50:36;2.65;;;2.45;;
41984;SDS011;28319;48.116;10.818;2022-08-03T06:53:05;4.55;;;2.47;;
41984;SDS011;28319;48.116;10.818;2022-08-03T06:55:33;3.03;;;2.30;;
41984;SDS011;28319;48.116;10.818;2022-08-03T06:58:02;2.60;;;2.17;;
41984;SDS011;28319;48.116;10.818;2022-08-03T07:00:31;2.65;;;2.20;;
41984;SDS011;28319;48.116;10.818;2022-08-03T07:02:59;2.90;;;2.28;;
41984;SDS011;28319;48.116;10.818;2022-08-03T07:05:26;4.22;;;2.50;;
41984;SDS011;28319;48.116;10.818;2022-08-03T07:07:54;2.70;;;2.50;;
41984;SDS011;28319;48.116;10.818;2022-08-03T07:10:23;2.50;;;2.30;;
41984;SDS011;28319;48.116;10.818;2022-08-03T07:12:51;2.40;;;2.20;;
41984;SDS011;28319;48.116;10.818;2022-08-03T07:15:19;2.03;;;1.92;;
41984;SDS011;28319;48.116;10.818;2022-08-03T07:17:47;2.50;;;1.80;;
41984;SDS011;28319;48.116;10.818;2022-08-03T07:20:14;1.70;;;1.60;;
41984;SDS011;28319;48.116;10.818;2022-08-03T07:22:42;1.70;;;1.60;;
41984;SDS011;28319;48.116;10.818;2022-08-03T07:25:09;1.67;;;1.58;;
41984;SDS011;28319;48.116;10.818;2022-08-03T07:27:37;1.90;;;1.80;;
41984;SDS011;28319;48.116;10.818;2022-08-03T07:30:05;2.80;;;1.67;;
41984;SDS011;28319;48.116;10.818;2022-08-03T07:32:33;1.52;;;1.50;;
41984;SDS011;28319;48.116;10.818;2022-08-03T07:35:03;1.60;;;1.50;;
41984;SDS011;28319;48.116;10.818;2022-08-03T07:37:31;1.60;;;1.50;;
41984;SDS011;28319;48.116;10.818;2022-08-03T07:39:58;3.20;;;1.55;;
41984;SDS011;28319;48.116;10.818;2022-08-03T07:42:27;1.60;;;1.50;;
41984;SDS011;28319;48.116;10.818;2022-08-03T07:44:55;1.70;;;1.60;;
41984;SDS011;28319;48.116;10.818;2022-08-03T07:47:23;1.83;;;1.60;;
41984;SDS011;28319;48.116;10.818;2022-08-03T07:49:52;1.35;;;1.35;;
41984;SDS011;28319;48.116;10.818;2022-08-03T07:52:21;1.80;;;1.70;;
41984;SDS011;28319;48.116;10.818;2022-08-03T07:55:05;3.13;;;1.35;;
41984;SDS011;28319;48.116;10.818;2022-08-03T07:57:34;1.52;;;1.45;;
41984;SDS011;28319;48.116;10.818;2022-08-03T08:00:02;1.50;;;1.40;;
41984;SDS011;28319;48.116;10.818;2022-08-03T08:02:31;1.42;;;1.38;;
41984;SDS011;28319;48.116;10.818;2022-08-03T08:04:59;1.58;;;1.48;;
41984;SDS011;28319;48.116;10.818;2022-08-03T08:07:27;1.48;;;1.40;;
41984;SDS011;28319;48.116;10.818;2022-08-03T08:09:54;2.88;;;1.58;;
41984;SDS011;28319;48.116;10.818;2022-08-03T08:12:22;1.58;;;1.52;;
41984;SDS011;28319;48.116;10.818;2022-08-03T08:14:49;1.67;;;1.35;;
41984;SDS011;28319;48.116;10.818;2022-08-03T08:17:16;1.60;;;1.50;;
41984;SDS011;28319;48.116;10.818;2022-08-03T08:19:43;1.45;;;1.35;;
41984;SDS011;28319;48.116;10.818;2022-08-03T08:22:11;1.63;;;1.20;;
41984;SDS011;28319;48.116;10.818;2022-08-03T08:24:40;1.50;;;1.40;;
41984;SDS011;28319;48.116;10.818;2022-08-03T08:27:08;1.27;;;1.27;;
41984;SDS011;28319;48.116;10.818;2022-08-03T08:29:36;1.20;;;1.20;;
41984;SDS011;28319;48.116;10.818;2022-08-03T08:32:03;3.20;;;1.40;;
41984;SDS011;28319;48.116;10.818;2022-08-03T08:34:31;1.27;;;1.27;;
41984;SDS011;28319;48.116;10.818;2022-08-03T08:36:58;1.13;;;1.13;;
41984;SDS011;28319;48.116;10.818;2022-08-03T08:39:26;1.17;;;1.17;;
41984;SDS011;28319;48.116;10.818;2022-08-03T08:41:55;1.40;;;1.30;;
41984;SDS011;28319;48.116;10.818;2022-08-03T08:44:22;1.42;;;1.30;;
41984;SDS011;28319;48.116;10.818;2022-08-03T08:46:49;1.20;;;1.10;;
41984;SDS011;28319;48.116;10.818;2022-08-03T08:49:21;1.25;;;1.25;;
41984;SDS011;28319;48.116;10.818;2022-08-03T08:51:51;4.13;;;1.45;;
41984;SDS011;28319;48.116;10.818;2022-08-03T08:54:22;2.90;;;1.17;;
41984;SDS011;28319;48.116;10.818;2022-08-03T08:56:50;1.13;;;1.10;;
41984;SDS011;28319;48.116;10.818;2022-08-03T08:59:24;1.20;;;1.20;;
41984;SDS011;28319;48.116;10.818;2022-08-03T09:01:55;1.10;;;1.10;;
41984;SDS011;28319;48.116;10.818;2022-08-03T09:04:23;1.10;;;1.10;;
41984;SDS011;28319;48.116;10.818;2022-08-03T09:06:50;1.10;;;1.10;;
41984;SDS011;28319;48.116;10.818;2022-08-03T09:09:18;1.45;;;1.20;;
41984;SDS011;28319;48.116;10.818;2022-08-03T09:11:46;1.73;;;1.63;;
41984;SDS011;28319;48.116;10.818;2022-08-03T09:14:14;1.05;;;1.05;;
41984;SDS011;28319;48.116;10.818;2022-08-03T09:16:55;1.00;;;1.00;;
41984;SDS011;28319;48.116;10.818;2022-08-03T09:19:26;1.20;;;1.10;;
41984;SDS011;28319;48.116;10.818;2022-08-03T09:52:53;1.38;;;1.27;;
41984;SDS011;28319;48.116;10.818;2022-08-03T09:55:27;1.30;;;1.30;;
41984;SDS011;28319;48.116;10.818;2022-08-03T09:58:02;1.05;;;1.05;;
41984;SDS011;28319;48.116;10.818;2022-08-03T10:00:30;1.25;;;1.15;;
41984;SDS011;28319;48.116;10.818;2022-08-03T10:03:02;1.20;;;1.20;;
41984;SDS011;28319;48.116;10.818;2022-08-03T10:05:30;1.25;;;1.20;;
41984;SDS011;28319;48.116;10.818;2022-08-03T10:07:59;1.20;;;1.20;;
41984;SDS011;28319;48.116;10.818;2022-08-03T10:10:26;1.17;;;1.08;;
41984;SDS011;28319;48.116;10.818;2022-08-03T10:13:07;1.23;;;1.20;;
41984;SDS011;28319;48.116;10.818;2022-08-03T10:15:37;2.05;;;1.30;;
41984;SDS011;28319;48.116;10.818;2022-08-03T10:18:05;1.95;;;0.90;;
41984;SDS011;28319;48.116;10.818;2022-08-03T10:20:35;1.80;;;1.20;;
41984;SDS011;28319;48.116;10.818;2022-08-03T10:23:07;1.17;;;1.17;;
41984;SDS011;28319;48.116;10.818;2022-08-03T10:25:36;1.27;;;1.23;;
41984;SDS011;28319;48.116;10.818;2022-08-03T10:28:05;4.47;;;1.20;;
41984;SDS011;28319;48.116;10.818;2022-08-03T10:30:36;1.52;;;1.05;;
41984;SDS011;28319;48.116;10.818;2022-08-03T10:33:07;1.08;;;1.08;;
41984;SDS011;28319;48.116;10.818;2022-08-03T10:35:38;3.75;;;1.20;;
41984;SDS011;28319;48.116;10.818;2022-08-03T10:38:09;1.13;;;1.13;;
41984;SDS011;28319;48.116;10.818;2022-08-03T10:40:41;1.40;;;1.20;;
41984;SDS011;28319;48.116;10.818;2022-08-03T10:43:11;1.63;;;1.20;;
41984;SDS011;28319;48.116;10.818;2022-08-03T10:45:43;1.10;;;1.10;;
41984;SDS011;28319;48.116;10.818;2022-08-03T10:48:12;1.10;;;1.10;;
41984;SDS011;28319;48.116;10.818;2022-08-03T10:50:39;1.33;;;1.20;;
41984;SDS011;28319;48.116;10.818;2022-08-03T10:53:09;1.00;;;1.00;;
41984;SDS011;28319;48.116;10.818;2022-08-03T10:55:37;1.20;;;1.20;;
41984;SDS011;28319;48.116;10.818;2022-08-03T11:01:16;1.13;;;1.00;;
41984;SDS011;28319;48.116;10.818;2022-08-03T11:06:40;1.52;;;1.23;;
41984;SDS011;28319;48.116;10.818;2022-08-03T11:09:15;1.45;;;1.35;;
41984;SDS011;28319;48.116;10.818;2022-08-03T11:11:44;2.42;;;1.10;;
41984;SDS011;28319;48.116;10.818;2022-08-03T11:14:14;1.20;;;1.10;;
41984;SDS011;28319;48.116;10.818;2022-08-03T11:16:43;1.20;;;1.20;;
41984;SDS011;28319;48.116;10.818;2022-08-03T11:19:12;1.33;;;1.30;;
41984;SDS011;28319;48.116;10.818;2022-08-03T11:21:57;1.17;;;1.17;;
41984;SDS011;28319;48.116;10.818;2022-08-03T11:27:29;2.17;;;1.40;;
41984;SDS011;28319;48.116;10.818;2022-08-03T11:29:58;1.33;;;1.33;;
41984;SDS011;28319;48.116;10.818;2022-08-03T11:35:18;1.02;;;1.02;;
41984;SDS011;28319;48.116;10.818;2022-08-03T11:38:02;1.60;;;1.20;;
41984;SDS011;28319;48.116;10.818;2022-08-03T11:40:33;1.50;;;1.40;;
41984;SDS011;28319;48.116;10.818;2022-08-03T11:43:01;0.90;;;0.90;;
41984;SDS011;28319;48.116;10.818;2022-08-03T11:45:29;0.95;;;0.95;;
41984;SDS011;28319;48.116;10.818;2022-08-03T11:47:56;1.00;;;1.00;;
41984;SDS011;28319;48.116;10.818;2022-08-03T11:50:25;0.95;;;0.95;;
41984;SDS011;28319;48.116;10.818;2022-08-03T11:52:52;2.55;;;1.02;;
41984;SDS011;28319;48.116;10.818;2022-08-03T11:55:19;1.40;;;1.30;;
41984;SDS011;28319;48.116;10.818;2022-08-03T11:57:48;3.20;;;1.30;;
41984;SDS011;28319;48.116;10.818;2022-08-03T12:00:20;1.65;;;1.13;;
41984;SDS011;28319;48.116;10.818;2022-08-03T12:02:58;1.10;;;1.10;;
41984;SDS011;28319;48.116;10.818;2022-08-03T12:05:40;1.10;;;1.10;;
41984;SDS011;28319;48.116;10.818;2022-08-03T12:08:13;1.40;;;1.38;;
41984;SDS011;28319;48.116;10.818;2022-08-03T12:10:45;1.17;;;1.17;;
41984;SDS011;28319;48.116;10.818;2022-08-03T12:13:16;1.10;;;1.10;;
41984;SDS011;28319;48.116;10.818;2022-08-03T12:15:49;1.30;;;1.20;;
41984;SDS011;28319;48.116;10.818;2022-08-03T12:18:18;1.25;;;1.17;;
41984;SDS011;28319;48.116;10.818;2022-08-03T12:20:46;1.98;;;1.10;;
41984;SDS011;28319;48.116;10.818;2022-08-03T12:23:14;1.10;;;1.10;;
41984;SDS011;28319;48.116;10.818;2022-08-03T12:25:42;1.23;;;1.20;;
41984;SDS011;28319;48.116;10.818;2022-08-03T12:28:11;0.90;;;0.90;;
41984;SDS011;28319;48.116;10.818;2022-08-03T12:30:44;1.38;;;1.30;;
41984;SDS011;28319;48.116;10.818;2022-08-03T12:33:13;1.30;;;1.30;;
41984;SDS011;28319;48.116;10.818;2022-08-03T12:35:41;1.40;;;1.30;;
41984;SDS011;28319;48.116;10.818;2022-08-03T12:38:09;0.95;;;0.95;;
41984;SDS011;28319;48.116;10.818;2022-08-03T12:40:37;1.25;;;1.20;;
41984;SDS011;28319;48.116;10.818;2022-08-03T12:43:09;2.47;;;1.00;;
41984;SDS011;28319;48.116;10.818;2022-08-03T12:45:37;1.85;;;1.20;;
41984;SDS011;28319;48.116;10.818;2022-08-03T12:48:08;1.25;;;1.20;;
41984;SDS011;28319;48.116;10.818;2022-08-03T12:50:37;1.85;;;1.15;;
41984;SDS011;28319;48.116;10.818;2022-08-03T12:53:06;1.23;;;1.23;;
41984;SDS011;28319;48.116;10.818;2022-08-03T12:55:34;1.52;;;1.42;;
41984;SDS011;28319;48.116;10.818;2022-08-03T12:58:03;2.05;;;1.08;;
41984;SDS011;28319;48.116;10.818;2022-08-03T13:00:31;1.67;;;1.20;;
41984;SDS011;28319;48.116;10.818;2022-08-03T13:02:59;1.00;;;1.00;;
41984;SDS011;28319;48.116;10.818;2022-08-03T13:05:30;1.15;;;1.15;;
41984;SDS011;28319;48.116;10.818;2022-08-03T13:07:57;4.30;;;1.23;;
41984;SDS011;28319;48.116;10.818;2022-08-03T13:10:28;1.30;;;1.20;;
41984;SDS011;28319;48.116;10.818;2022-08-03T13:12:56;1.20;;;1.20;;
41984;SDS011;28319;48.116;10.818;2022-08-03T13:15:24;1.00;;;1.00;;
41984;SDS011;28319;48.116;10.818;2022-08-03T13:17:53;3.60;;;1.20;;
41984;SDS011;28319;48.116;10.818;2022-08-03T13:20:20;2.33;;;1.20;;
41984;SDS011;28319;48.116;10.818;2022-08-03T13:22:49;3.45;;;1.17;;
41984;SDS011;28319;48.116;10.818;2022-08-03T13:25:16;1.40;;;1.30;;
41984;SDS011;28319;48.116;10.818;2022-08-03T13:27:44;0.95;;;0.95;;
41984;SDS011;28319;48.116;10.818;2022-08-03T13:30:12;0.90;;;0.90;;
41984;SDS011;28319;48.116;10.818;2022-08-03T13:32:39;2.92;;;1.33;;
41984;SDS011;28319;48.116;10.818;2022-08-03T13:35:07;2.15;;;1.13;;
41984;SDS011;28319;48.116;10.818;2022-08-03T13:37:35;1.40;;;1.30;;
41984;SDS011;28319;48.116;10.818;2022-08-03T13:40:05;1.55;;;1.20;;
41984;SDS011;28319;48.116;10.818;2022-08-03T13:42:33;1.20;;;1.13;;
41984;SDS011;28319;48.116;10.818;2022-08-03T13:45:01;1.55;;;1.20;;
41984;SDS011;28319;48.116;10.818;2022-08-03T13:47:29;4.30;;;1.20;;
41984;SDS011;28319;48.116;10.818;2022-08-03T13:49:56;1.25;;;1.10;;
41984;SDS011;28319;48.116;10.818;2022-08-03T13:52:23;1.05;;;1.05;;
41984;SDS011;28319;48.116;10.818;2022-08-03T13:54:50;1.38;;;1.27;;
41984;SDS011;28319;48.116;10.818;2022-08-03T13:57:19;1.85;;;1.27;;
41984;SDS011;28319;48.116;10.818;2022-08-03T13:59:47;1.30;;;1.30;;
41984;SDS011;28319;48.116;10.818;2022-08-03T14:02:14;1.20;;;1.20;;
41984;SDS011;28319;48.116;10.818;2022-08-03T14:04:42;1.52;;;1.40;;
41984;SDS011;28319;48.116;10.818;2022-08-03T14:07:10;3.20;;;1.20;;
41984;SDS011;28319;48.116;10.818;2022-08-03T14:09:39;1.40;;;1.30;;
41984;SDS011;28319;48.116;10.818;2022-08-03T14:12:06;1.20;;;1.20;;
41984;SDS011;28319;48.116;10.818;2022-08-03T14:14:35;1.00;;;1.00;;
41984;SDS011;28319;48.116;10.818;2022-08-03T14:17:02;1.77;;;1.10;;
41984;SDS011;28319;48.116;10.818;2022-08-03T14:19:29;1.13;;;1.10;;
41984;SDS011;28319;48.116;10.818;2022-08-03T14:21:56;1.30;;;1.30;;
41984;SDS011;28319;48.116;10.818;2022-08-03T14:24:23;1.20;;;1.20;;
41984;SDS011;28319;48.116;10.818;2022-08-03T14:26:50;1.20;;;1.20;;
41984;SDS011;28319;48.116;10.818;2022-08-03T14:29:17;1.25;;;1.25;;
41984;SDS011;28319;48.116;10.818;2022-08-03T14:31:45;1.20;;;1.20;;
41984;SDS011;28319;48.116;10.818;2022-08-03T14:34:13;3.13;;;1.17;;
41984;SDS011;28319;48.116;10.818;2022-08-03T14:36:40;1.98;;;1.00;;
41984;SDS011;28319;48.116;10.818;2022-08-03T14:39:07;5.38;;;1.38;;
41984;SDS011;28319;48.116;10.818;2022-08-03T14:41:34;1.75;;;1.20;;
41984;SDS011;28319;48.116;10.818;2022-08-03T14:44:02;1.33;;;1.17;;
41984;SDS011;28319;48.116;10.818;2022-08-03T14:46:29;1.27;;;1.00;;
41984;SDS011;28319;48.116;10.818;2022-08-03T14:48:58;2.85;;;1.02;;
41984;SDS011;28319;48.116;10.818;2022-08-03T14:51:25;1.42;;;1.10;;
41984;SDS011;28319;48.116;10.818;2022-08-03T14:53:53;1.33;;;0.93;;
41984;SDS011;28319;48.116;10.818;2022-08-03T14:56:21;1.00;;;1.00;;
41984;SDS011;28319;48.116;10.818;2022-08-03T14:58:48;1.17;;;1.10;;
41984;SDS011;28319;48.116;10.818;2022-08-03T15:01:15;0.85;;;0.85;;
41984;SDS011;28319;48.116;10.818;2022-08-03T15:03:42;1.35;;;1.25;;
41984;SDS011;28319;48.116;10.818;2022-08-03T15:06:12;0.98;;;0.98;;
41984;SDS011;28319;48.116;10.818;2022-08-03T15:08:39;1.35;;;1.20;;
41984;SDS011;28319;48.116;10.818;2022-08-03T15:11:06;0.93;;;0.93;;
41984;SDS011;28319;48.116;10.818;2022-08-03T15:13:33;1.00;;;1.00;;
41984;SDS011;28319;48.116;10.818;2022-08-03T15:16:00;1.17;;;1.05;;
41984;SDS011;28319;48.116;10.818;2022-08-03T15:18:27;1.10;;;1.10;;
41984;SDS011;28319;48.116;10.818;2022-08-03T15:20:54;0.95;;;0.95;;
41984;SDS011;28319;48.116;10.818;2022-08-03T15:23:23;2.08;;;1.35;;
41984;SDS011;28319;48.116;10.818;2022-08-03T15:25:50;1.50;;;1.40;;
41984;SDS011;28319;48.116;10.818;2022-08-03T15:28:17;1.58;;;1.20;;